sensor_id;sensor_type;location;lat;lon;timestamp;pressure;altitude;pressure_sealevel;temperature;humidity
66742;BME280;53654;54.152;19.432;2023-12-28T00:00:37;101757.85;;;2.11;78.41
66742;BME280;53654;54.152;19.432;2023-12-28T00:03:25;101761.08;;;2.06;78.57
66742;BME280;53654;54.152;19.432;2023-12-28T00:05:53;101759.99;;;2.05;78.78
66742;BME280;53654;54.152;19.432;2023-12-28T00:08:22;101740.30;;;2.03;78.76
66742;BME280;53654;54.152;19.432;2023-12-28T00:10:50;101719.91;;;2.02;78.67
66742;BME280;53654;54.152;19.432;2023-12-28T00:13:19;101706.63;;;2.01;79.11
66742;BME280;53654;54.152;19.432;2023-12-28T00:15:47;101692.03;;;2.02;78.84
66742;BME280;53654;54.152;19.432;2023-12-28T00:18:15;101683.64;;;1.99;79.00
66742;BME280;53654;54.152;19.432;2023-12-28T00:20:44;101675.30;;;1.97;78.97
66742;BME280;53654;54.152;19.432;2023-12-28T00:23:12;101679.21;;;1.95;79.36
66742;BME280;53654;54.152;19.432;2023-12-28T00:25:41;101675.07;;;1.95;79.42
66742;BME280;53654;54.152;19.432;2023-12-28T00:28:09;101668.23;;;1.97;79.66
66742;BME280;53654;54.152;19.432;2023-12-28T00:30:37;101666.81;;;1.99;79.62
66742;BME280;53654;54.152;19.432;2023-12-28T00:33:06;101659.33;;;1.97;79.77
66742;BME280;53654;54.152;19.432;2023-12-28T00:35:34;101652.68;;;1.95;80.03
66742;BME280;53654;54.152;19.432;2023-12-28T00:38:02;101655.85;;;1.92;80.39
66742;BME280;53654;54.152;19.432;2023-12-28T00:40:30;101652.50;;;1.90;80.40
66742;BME280;53654;54.152;19.432;2023-12-28T00:42:58;101644.04;;;1.89;80.59
66742;BME280;53654;54.152;19.432;2023-12-28T00:45:27;101631.90;;;1.87;80.98
66742;BME280;53654;54.152;19.432;2023-12-28T00:47:55;101626.61;;;1.88;80.96
66742;BME280;53654;54.152;19.432;2023-12-28T00:50:25;101625.84;;;1.82;81.82
66742;BME280;53654;54.152;19.432;2023-12-28T00:52:59;101618.15;;;1.75;82.25
66742;BME280;53654;54.152;19.432;2023-12-28T00:55:28;101615.77;;;1.76;82.34
66742;BME280;53654;54.152;19.432;2023-12-28T00:57:56;101619.98;;;1.66;82.98
66742;BME280;53654;54.152;19.432;2023-12-28T01:00:25;101615.79;;;1.64;83.13
66742;BME280;53654;54.152;19.432;2023-12-28T01:02:53;101609.08;;;1.60;83.60
66742;BME280;53654;54.152;19.432;2023-12-28T01:05:21;101614.77;;;1.55;84.06
66742;BME280;53654;54.152;19.432;2023-12-28T01:07:49;101616.15;;;1.56;84.06
66742;BME280;53654;54.152;19.432;2023-12-28T01:10:17;101614.95;;;1.60;84.17
66742;BME280;53654;54.152;19.432;2023-12-28T01:12:46;101601.79;;;1.62;84.03
66742;BME280;53654;54.152;19.432;2023-12-28T01:15:14;101603.80;;;1.61;84.08
66742;BME280;53654;54.152;19.432;2023-12-28T01:17:43;101605.96;;;1.63;83.76
66742;BME280;53654;54.152;19.432;2023-12-28T01:20:12;101603.94;;;1.60;84.04
66742;BME280;53654;54.152;19.432;2023-12-28T01:22:40;101595.66;;;1.59;84.27
66742;BME280;53654;54.152;19.432;2023-12-28T01:25:09;101600.46;;;1.59;84.33
66742;BME280;53654;54.152;19.432;2023-12-28T01:27:37;101601.48;;;1.63;84.02
66742;BME280;53654;54.152;19.432;2023-12-28T01:30:06;101590.77;;;1.62;84.42
66742;BME280;53654;54.152;19.432;2023-12-28T01:32:35;101586.17;;;1.63;84.41
66742;BME280;53654;54.152;19.432;2023-12-28T01:35:04;101577.09;;;1.64;84.40
66742;BME280;53654;54.152;19.432;2023-12-28T01:37:32;101575.50;;;1.63;84.89
66742;BME280;53654;54.152;19.432;2023-12-28T01:40:01;101571.38;;;1.63;84.93
66742;BME280;53654;54.152;19.432;2023-12-28T01:42:30;101561.48;;;1.65;84.71
66742;BME280;53654;54.152;19.432;2023-12-28T01:44:59;101561.06;;;1.63;85.06
66742;BME280;53654;54.152;19.432;2023-12-28T01:47:29;101559.88;;;1.59;85.43
66742;BME280;53654;54.152;19.432;2023-12-28T01:49:58;101564.54;;;1.64;85.35
66742;BME280;53654;54.152;19.432;2023-12-28T01:52:28;101561.00;;;1.66;85.14
66742;BME280;53654;54.152;19.432;2023-12-28T01:54:56;101559.39;;;1.69;84.91
66742;BME280;53654;54.152;19.432;2023-12-28T01:57:25;101553.31;;;1.71;84.68
66742;BME280;53654;54.152;19.432;2023-12-28T01:59:53;101555.89;;;1.75;84.48
66742;BME280;53654;54.152;19.432;2023-12-28T02:02:23;101549.14;;;1.75;84.50
66742;BME280;53654;54.152;19.432;2023-12-28T02:04:51;101541.33;;;1.73;84.80
66742;BME280;53654;54.152;19.432;2023-12-28T02:07:20;101537.66;;;1.71;84.74
66742;BME280;53654;54.152;19.432;2023-12-28T02:09:51;101522.75;;;1.69;84.83
66742;BME280;53654;54.152;19.432;2023-12-28T02:12:19;101512.28;;;1.69;84.89
66742;BME280;53654;54.152;19.432;2023-12-28T02:14:48;101507.95;;;1.68;85.05
66742;BME280;53654;54.152;19.432;2023-12-28T02:17:22;101509.06;;;1.66;85.39
66742;BME280;53654;54.152;19.432;2023-12-28T02:19:54;101504.98;;;1.63;85.60
66742;BME280;53654;54.152;19.432;2023-12-28T02:22:26;101494.83;;;1.62;85.81
66742;BME280;53654;54.152;19.432;2023-12-28T02:27:27;101454.30;;;1.64;85.86
66742;BME280;53654;54.152;19.432;2023-12-28T02:29:55;101431.52;;;1.67;85.71
66742;BME280;53654;54.152;19.432;2023-12-28T02:32:47;101423.79;;;1.71;85.52
66742;BME280;53654;54.152;19.432;2023-12-28T02:38:08;101406.48;;;1.73;85.77
66742;BME280;53654;54.152;19.432;2023-12-28T02:40:42;101406.79;;;1.77;85.68
66742;BME280;53654;54.152;19.432;2023-12-28T02:43:13;101406.42;;;1.80;85.80
66742;BME280;53654;54.152;19.432;2023-12-28T02:45:41;101390.41;;;1.85;85.47
66742;BME280;53654;54.152;19.432;2023-12-28T02:48:10;101379.49;;;1.87;85.83
66742;BME280;53654;54.152;19.432;2023-12-28T02:50:38;101378.86;;;1.84;86.22
66742;BME280;53654;54.152;19.432;2023-12-28T02:53:06;101385.20;;;1.88;86.17
66742;BME280;53654;54.152;19.432;2023-12-28T02:55:35;101383.20;;;1.90;86.18
66742;BME280;53654;54.152;19.432;2023-12-28T02:58:03;101371.69;;;1.90;86.07
66742;BME280;53654;54.152;19.432;2023-12-28T03:00:31;101362.70;;;1.94;86.16
66742;BME280;53654;54.152;19.432;2023-12-28T03:03:00;101347.80;;;1.91;86.27
66742;BME280;53654;54.152;19.432;2023-12-28T03:05:28;101341.79;;;1.96;86.05
66742;BME280;53654;54.152;19.432;2023-12-28T03:07:56;101338.65;;;1.95;85.95
66742;BME280;53654;54.152;19.432;2023-12-28T03:10:26;101336.98;;;1.96;86.23
66742;BME280;53654;54.152;19.432;2023-12-28T03:12:54;101325.11;;;1.96;86.16
66742;BME280;53654;54.152;19.432;2023-12-28T03:15:24;101327.30;;;1.95;86.47
66742;BME280;53654;54.152;19.432;2023-12-28T03:17:52;101322.12;;;1.95;86.65
66742;BME280;53654;54.152;19.432;2023-12-28T03:20:20;101310.88;;;1.93;86.87
66742;BME280;53654;54.152;19.432;2023-12-28T03:22:48;101304.72;;;1.89;87.13
66742;BME280;53654;54.152;19.432;2023-12-28T03:25:16;101297.67;;;1.94;86.87
66742;BME280;53654;54.152;19.432;2023-12-28T03:27:45;101289.16;;;1.97;86.82
66742;BME280;53654;54.152;19.432;2023-12-28T03:30:13;101272.75;;;2.00;86.32
66742;BME280;53654;54.152;19.432;2023-12-28T03:32:42;101268.80;;;2.00;86.37
66742;BME280;53654;54.152;19.432;2023-12-28T03:35:10;101257.31;;;1.97;86.70
66742;BME280;53654;54.152;19.432;2023-12-28T03:37:38;101261.73;;;1.95;86.91
66742;BME280;53654;54.152;19.432;2023-12-28T03:40:07;101257.20;;;1.98;86.70
66742;BME280;53654;54.152;19.432;2023-12-28T03:42:35;101259.70;;;1.96;86.75
66742;BME280;53654;54.152;19.432;2023-12-28T03:45:04;101259.75;;;1.97;86.65
66742;BME280;53654;54.152;19.432;2023-12-28T03:47:33;101245.72;;;1.99;86.58
66742;BME280;53654;54.152;19.432;2023-12-28T03:50:01;101239.63;;;2.03;86.26
66742;BME280;53654;54.152;19.432;2023-12-28T03:52:29;101234.50;;;1.99;86.42
66742;BME280;53654;54.152;19.432;2023-12-28T03:54:58;101234.13;;;2.03;86.38
66742;BME280;53654;54.152;19.432;2023-12-28T03:57:26;101221.58;;;1.98;86.64
66742;BME280;53654;54.152;19.432;2023-12-28T03:59:55;101209.28;;;1.96;86.84
66742;BME280;53654;54.152;19.432;2023-12-28T04:02:24;101200.91;;;2.03;86.46
66742;BME280;53654;54.152;19.432;2023-12-28T04:04:55;101197.66;;;1.98;86.62
66742;BME280;53654;54.152;19.432;2023-12-28T04:07:25;101188.02;;;2.03;86.35
66742;BME280;53654;54.152;19.432;2023-12-28T04:09:53;101186.77;;;2.02;86.43
66742;BME280;53654;54.152;19.432;2023-12-28T04:12:22;101176.86;;;2.04;86.39
66742;BME280;53654;54.152;19.432;2023-12-28T04:14:50;101173.99;;;2.01;86.50
66742;BME280;53654;54.152;19.432;2023-12-28T04:17:19;101169.11;;;1.99;86.67
66742;BME280;53654;54.152;19.432;2023-12-28T04:19:47;101164.40;;;2.02;86.54
66742;BME280;53654;54.152;19.432;2023-12-28T04:22:15;101158.77;;;1.93;87.04
66742;BME280;53654;54.152;19.432;2023-12-28T04:24:44;101157.27;;;1.94;87.08
66742;BME280;53654;54.152;19.432;2023-12-28T04:27:13;101162.77;;;1.99;86.99
66742;BME280;53654;54.152;19.432;2023-12-28T04:29:41;101169.41;;;2.08;86.59
66742;BME280;53654;54.152;19.432;2023-12-28T04:32:09;101174.52;;;2.11;86.27
66742;BME280;53654;54.152;19.432;2023-12-28T04:34:37;101168.91;;;2.13;86.45
66742;BME280;53654;54.152;19.432;2023-12-28T04:37:06;101160.27;;;2.17;86.11
66742;BME280;53654;54.152;19.432;2023-12-28T04:39:34;101157.48;;;2.16;85.94
66742;BME280;53654;54.152;19.432;2023-12-28T04:42:02;101148.42;;;2.19;85.74
66742;BME280;53654;54.152;19.432;2023-12-28T04:44:31;101140.88;;;2.19;85.67
66742;BME280;53654;54.152;19.432;2023-12-28T04:46:59;101140.27;;;2.16;85.74
66742;BME280;53654;54.152;19.432;2023-12-28T04:49:27;101115.79;;;2.15;85.85
66742;BME280;53654;54.152;19.432;2023-12-28T04:51:56;101095.60;;;2.14;85.99
66742;BME280;53654;54.152;19.432;2023-12-28T04:54:24;101079.02;;;2.11;86.00
66742;BME280;53654;54.152;19.432;2023-12-28T04:56:53;101082.80;;;2.12;85.97
66742;BME280;53654;54.152;19.432;2023-12-28T04:59:21;101071.51;;;2.14;85.59
66742;BME280;53654;54.152;19.432;2023-12-28T05:01:49;101058.50;;;2.05;85.98
66742;BME280;53654;54.152;19.432;2023-12-28T05:04:18;101057.89;;;2.07;85.77
66742;BME280;53654;54.152;19.432;2023-12-28T05:06:46;101058.70;;;2.11;85.59
66742;BME280;53654;54.152;19.432;2023-12-28T05:09:14;101056.58;;;2.04;85.98
66742;BME280;53654;54.152;19.432;2023-12-28T05:11:42;101056.56;;;2.09;85.63
66742;BME280;53654;54.152;19.432;2023-12-28T05:14:11;101060.31;;;2.13;85.44
66742;BME280;53654;54.152;19.432;2023-12-28T05:16:39;101053.64;;;2.15;85.33
66742;BME280;53654;54.152;19.432;2023-12-28T05:19:07;101041.05;;;2.14;85.16
66742;BME280;53654;54.152;19.432;2023-12-28T05:21:37;101023.47;;;2.13;85.21
66742;BME280;53654;54.152;19.432;2023-12-28T05:24:05;101005.45;;;2.09;85.15
66742;BME280;53654;54.152;19.432;2023-12-28T05:26:34;101005.79;;;2.09;85.40
66742;BME280;53654;54.152;19.432;2023-12-28T05:29:03;100992.53;;;2.09;85.53
66742;BME280;53654;54.152;19.432;2023-12-28T05:31:31;100988.98;;;2.11;85.38
66742;BME280;53654;54.152;19.432;2023-12-28T05:34:00;100983.72;;;2.13;85.34
66742;BME280;53654;54.152;19.432;2023-12-28T05:36:28;100965.18;;;2.09;85.48
66742;BME280;53654;54.152;19.432;2023-12-28T05:38:57;100961.35;;;2.02;85.69
66742;BME280;53654;54.152;19.432;2023-12-28T05:41:25;100963.77;;;2.08;85.44
66742;BME280;53654;54.152;19.432;2023-12-28T05:43:53;100969.42;;;2.07;85.51
66742;BME280;53654;54.152;19.432;2023-12-28T05:46:21;100975.60;;;2.12;85.44
66742;BME280;53654;54.152;19.432;2023-12-28T05:48:49;100962.50;;;2.12;85.34
66742;BME280;53654;54.152;19.432;2023-12-28T05:51:18;100953.61;;;2.14;85.48
66742;BME280;53654;54.152;19.432;2023-12-28T05:53:49;100946.48;;;2.24;84.94
66742;BME280;53654;54.152;19.432;2023-12-28T05:56:17;100930.25;;;2.27;84.81
66742;BME280;53654;54.152;19.432;2023-12-28T05:58:45;100935.13;;;2.30;84.69
66742;BME280;53654;54.152;19.432;2023-12-28T06:01:13;100935.51;;;2.37;84.57
66742;BME280;53654;54.152;19.432;2023-12-28T06:03:42;100924.44;;;2.42;84.39
66742;BME280;53654;54.152;19.432;2023-12-28T06:06:10;100915.52;;;2.43;84.16
66742;BME280;53654;54.152;19.432;2023-12-28T06:08:38;100907.28;;;2.50;83.87
66742;BME280;53654;54.152;19.432;2023-12-28T06:11:06;100901.74;;;2.49;83.90
66742;BME280;53654;54.152;19.432;2023-12-28T06:13:34;100896.11;;;2.58;83.57
66742;BME280;53654;54.152;19.432;2023-12-28T06:16:03;100893.73;;;2.59;83.46
66742;BME280;53654;54.152;19.432;2023-12-28T06:18:31;100900.70;;;2.62;83.22
66742;BME280;53654;54.152;19.432;2023-12-28T06:21:00;100920.45;;;2.67;83.16
66742;BME280;53654;54.152;19.432;2023-12-28T06:23:28;100941.08;;;2.71;83.16
66742;BME280;53654;54.152;19.432;2023-12-28T06:25:56;100959.08;;;2.74;82.79
66742;BME280;53654;54.152;19.432;2023-12-28T06:28:24;100963.84;;;2.78;82.73
66742;BME280;53654;54.152;19.432;2023-12-28T06:30:52;100958.79;;;2.83;82.66
66742;BME280;53654;54.152;19.432;2023-12-28T06:33:21;100954.19;;;2.84;82.43
66742;BME280;53654;54.152;19.432;2023-12-28T06:35:49;100947.86;;;2.86;82.50
66742;BME280;53654;54.152;19.432;2023-12-28T06:38:17;100938.65;;;2.91;82.33
66742;BME280;53654;54.152;19.432;2023-12-28T06:40:45;100948.18;;;2.93;82.21
66742;BME280;53654;54.152;19.432;2023-12-28T06:43:14;100930.27;;;2.93;82.17
66742;BME280;53654;54.152;19.432;2023-12-28T06:45:42;100930.96;;;2.93;82.10
66742;BME280;53654;54.152;19.432;2023-12-28T06:48:10;100924.98;;;2.96;82.03
66742;BME280;53654;54.152;19.432;2023-12-28T06:50:38;100919.52;;;2.98;81.77
66742;BME280;53654;54.152;19.432;2023-12-28T06:53:06;100917.86;;;3.00;81.61
66742;BME280;53654;54.152;19.432;2023-12-28T06:55:34;100916.21;;;3.03;81.72
66742;BME280;53654;54.152;19.432;2023-12-28T06:58:03;100905.61;;;3.06;81.45
66742;BME280;53654;54.152;19.432;2023-12-28T07:00:31;100910.30;;;3.08;81.30
66742;BME280;53654;54.152;19.432;2023-12-28T07:03:00;100914.54;;;3.12;81.33
66742;BME280;53654;54.152;19.432;2023-12-28T07:05:28;100913.27;;;3.17;81.17
66742;BME280;53654;54.152;19.432;2023-12-28T07:07:56;100899.39;;;3.20;81.04
66742;BME280;53654;54.152;19.432;2023-12-28T07:10:25;100882.26;;;3.24;80.73
66742;BME280;53654;54.152;19.432;2023-12-28T07:12:53;100886.48;;;3.28;80.87
66742;BME280;53654;54.152;19.432;2023-12-28T07:15:21;100897.57;;;3.31;80.49
66742;BME280;53654;54.152;19.432;2023-12-28T07:17:50;100904.06;;;3.35;80.71
66742;BME280;53654;54.152;19.432;2023-12-28T07:20:18;100914.22;;;3.42;80.51
66742;BME280;53654;54.152;19.432;2023-12-28T07:22:46;100911.89;;;3.45;80.21
66742;BME280;53654;54.152;19.432;2023-12-28T07:25:15;100914.36;;;3.47;80.04
66742;BME280;53654;54.152;19.432;2023-12-28T07:27:43;100920.61;;;3.50;80.10
66742;BME280;53654;54.152;19.432;2023-12-28T07:30:12;100926.73;;;3.53;79.90
66742;BME280;53654;54.152;19.432;2023-12-28T07:32:40;100931.80;;;3.57;79.98
66742;BME280;53654;54.152;19.432;2023-12-28T07:35:09;100924.83;;;3.61;79.86
66742;BME280;53654;54.152;19.432;2023-12-28T07:37:37;100923.90;;;3.66;79.56
66742;BME280;53654;54.152;19.432;2023-12-28T07:40:06;100922.22;;;3.68;79.45
66742;BME280;53654;54.152;19.432;2023-12-28T07:42:35;100919.83;;;3.69;79.28
66742;BME280;53654;54.152;19.432;2023-12-28T07:45:04;100925.56;;;3.71;79.13
66742;BME280;53654;54.152;19.432;2023-12-28T07:47:32;100927.23;;;3.75;79.36
66742;BME280;53654;54.152;19.432;2023-12-28T07:50:01;100938.17;;;3.79;79.00
66742;BME280;53654;54.152;19.432;2023-12-28T07:52:30;100935.27;;;3.81;78.88
66742;BME280;53654;54.152;19.432;2023-12-28T07:54:58;100933.99;;;3.85;79.05
66742;BME280;53654;54.152;19.432;2023-12-28T07:57:27;100928.73;;;3.89;78.85
66742;BME280;53654;54.152;19.432;2023-12-28T07:59:55;100923.95;;;3.92;78.66
66742;BME280;53654;54.152;19.432;2023-12-28T08:02:23;100932.44;;;3.93;78.35
66742;BME280;53654;54.152;19.432;2023-12-28T08:04:51;100944.73;;;3.95;78.50
66742;BME280;53654;54.152;19.432;2023-12-28T08:07:19;100949.86;;;4.01;78.56
66742;BME280;53654;54.152;19.432;2023-12-28T08:09:48;100954.26;;;4.04;78.57
66742;BME280;53654;54.152;19.432;2023-12-28T08:12:16;100955.59;;;4.10;78.69
66742;BME280;53654;54.152;19.432;2023-12-28T08:14:44;100953.09;;;4.15;78.63
66742;BME280;53654;54.152;19.432;2023-12-28T08:17:13;100947.85;;;4.19;78.49
66742;BME280;53654;54.152;19.432;2023-12-28T08:19:41;100944.92;;;4.20;78.30
66742;BME280;53654;54.152;19.432;2023-12-28T08:22:10;100945.98;;;4.21;78.18
66742;BME280;53654;54.152;19.432;2023-12-28T08:24:38;100946.64;;;4.20;78.07
66742;BME280;53654;54.152;19.432;2023-12-28T08:27:06;100937.49;;;4.20;78.09
66742;BME280;53654;54.152;19.432;2023-12-28T08:29:34;100938.17;;;4.20;78.15
66742;BME280;53654;54.152;19.432;2023-12-28T08:32:03;100944.20;;;4.18;78.34
66742;BME280;53654;54.152;19.432;2023-12-28T08:34:31;100936.36;;;4.25;78.33
66742;BME280;53654;54.152;19.432;2023-12-28T08:37:00;100933.82;;;4.27;78.12
66742;BME280;53654;54.152;19.432;2023-12-28T08:39:28;100935.09;;;4.30;78.04
66742;BME280;53654;54.152;19.432;2023-12-28T08:41:56;100938.65;;;4.35;78.14
66742;BME280;53654;54.152;19.432;2023-12-28T08:44:24;100943.10;;;4.42;78.00
66742;BME280;53654;54.152;19.432;2023-12-28T08:46:53;100944.63;;;4.49;77.83
66742;BME280;53654;54.152;19.432;2023-12-28T08:49:21;100949.59;;;4.55;77.66
66742;BME280;53654;54.152;19.432;2023-12-28T08:51:51;100952.46;;;4.61;77.57
66742;BME280;53654;54.152;19.432;2023-12-28T08:54:19;100947.07;;;4.68;77.51
66742;BME280;53654;54.152;19.432;2023-12-28T08:56:47;100942.36;;;4.75;77.28
66742;BME280;53654;54.152;19.432;2023-12-28T08:59:20;100953.52;;;4.81;77.30
66742;BME280;53654;54.152;19.432;2023-12-28T09:01:48;100955.36;;;4.87;77.09
66742;BME280;53654;54.152;19.432;2023-12-28T09:04:16;100958.73;;;4.92;76.86
66742;BME280;53654;54.152;19.432;2023-12-28T09:06:44;100959.64;;;4.95;76.72
66742;BME280;53654;54.152;19.432;2023-12-28T09:09:13;100969.21;;;4.98;76.77
66742;BME280;53654;54.152;19.432;2023-12-28T09:11:41;100965.15;;;5.03;76.79
66742;BME280;53654;54.152;19.432;2023-12-28T09:14:09;100955.58;;;5.09;76.62
66742;BME280;53654;54.152;19.432;2023-12-28T09:16:38;100943.21;;;5.14;76.74
66742;BME280;53654;54.152;19.432;2023-12-28T09:19:07;100934.16;;;5.20;76.56
66742;BME280;53654;54.152;19.432;2023-12-28T09:21:35;100927.84;;;5.24;76.41
66742;BME280;53654;54.152;19.432;2023-12-28T09:24:04;100928.91;;;5.27;76.21
66742;BME280;53654;54.152;19.432;2023-12-28T09:26:33;100938.11;;;5.28;76.40
66742;BME280;53654;54.152;19.432;2023-12-28T09:29:01;100940.92;;;5.31;76.35
66742;BME280;53654;54.152;19.432;2023-12-28T09:31:29;100939.24;;;5.34;76.32
66742;BME280;53654;54.152;19.432;2023-12-28T09:33:58;100938.25;;;5.37;76.21
66742;BME280;53654;54.152;19.432;2023-12-28T09:36:27;100936.91;;;5.39;76.18
66742;BME280;53654;54.152;19.432;2023-12-28T09:38:55;100942.65;;;5.42;76.34
66742;BME280;53654;54.152;19.432;2023-12-28T09:41:27;100950.46;;;5.43;76.24
66742;BME280;53654;54.152;19.432;2023-12-28T09:44:11;100946.52;;;5.46;76.29
66742;BME280;53654;54.152;19.432;2023-12-28T09:46:43;100943.79;;;5.48;76.34
66742;BME280;53654;54.152;19.432;2023-12-28T09:49:12;100935.16;;;5.49;76.44
66742;BME280;53654;54.152;19.432;2023-12-28T09:51:40;100928.08;;;5.50;76.27
66742;BME280;53654;54.152;19.432;2023-12-28T09:54:09;100923.23;;;5.50;76.51
66742;BME280;53654;54.152;19.432;2023-12-28T09:56:37;100924.09;;;5.51;76.78
66742;BME280;53654;54.152;19.432;2023-12-28T09:59:08;100923.93;;;5.52;76.83
66742;BME280;53654;54.152;19.432;2023-12-28T10:01:38;100922.89;;;5.50;76.89
66742;BME280;53654;54.152;19.432;2023-12-28T10:04:07;100924.61;;;5.50;76.98
66742;BME280;53654;54.152;19.432;2023-12-28T10:06:36;100924.81;;;5.53;77.26
66742;BME280;53654;54.152;19.432;2023-12-28T10:09:06;100923.96;;;5.53;77.41
66742;BME280;53654;54.152;19.432;2023-12-28T10:11:35;100924.15;;;5.54;77.50
66742;BME280;53654;54.152;19.432;2023-12-28T10:14:04;100923.48;;;5.56;77.70
66742;BME280;53654;54.152;19.432;2023-12-28T10:16:32;100925.93;;;5.58;77.65
66742;BME280;53654;54.152;19.432;2023-12-28T10:19:00;100926.64;;;5.59;77.95
66742;BME280;53654;54.152;19.432;2023-12-28T10:21:29;100919.38;;;5.59;78.14
66742;BME280;53654;54.152;19.432;2023-12-28T10:23:57;100912.45;;;5.59;78.21
66742;BME280;53654;54.152;19.432;2023-12-28T10:26:25;100907.26;;;5.59;78.53
66742;BME280;53654;54.152;19.432;2023-12-28T10:29:01;100909.70;;;5.60;78.59
66742;BME280;53654;54.152;19.432;2023-12-28T10:31:31;100898.48;;;5.62;78.85
66742;BME280;53654;54.152;19.432;2023-12-28T10:34:00;100902.48;;;5.64;79.13
66742;BME280;53654;54.152;19.432;2023-12-28T10:36:32;100901.83;;;5.67;79.43
66742;BME280;53654;54.152;19.432;2023-12-28T10:39:05;100895.80;;;5.69;79.63
66742;BME280;53654;54.152;19.432;2023-12-28T10:41:36;100891.02;;;5.73;79.56
66742;BME280;53654;54.152;19.432;2023-12-28T10:44:09;100892.64;;;5.78;79.57
66742;BME280;53654;54.152;19.432;2023-12-28T10:46:40;100898.23;;;5.82;79.75
66742;BME280;53654;54.152;19.432;2023-12-28T10:49:12;100903.27;;;5.84;79.73
66742;BME280;53654;54.152;19.432;2023-12-28T10:51:46;100913.73;;;5.88;80.02
66742;BME280;53654;54.152;19.432;2023-12-28T10:54:37;100917.45;;;5.93;79.93
66742;BME280;53654;54.152;19.432;2023-12-28T10:57:23;100917.79;;;5.92;80.01
66742;BME280;53654;54.152;19.432;2023-12-28T11:00:10;100924.54;;;5.92;80.04
66742;BME280;53654;54.152;19.432;2023-12-28T11:02:48;100928.55;;;5.93;80.28
66742;BME280;53654;54.152;19.432;2023-12-28T11:05:20;100932.20;;;5.95;80.35
66742;BME280;53654;54.152;19.432;2023-12-28T11:07:50;100925.13;;;5.97;80.61
66742;BME280;53654;54.152;19.432;2023-12-28T11:10:23;100925.16;;;6.01;80.85
66742;BME280;53654;54.152;19.432;2023-12-28T11:12:53;100929.55;;;6.05;80.79
66742;BME280;53654;54.152;19.432;2023-12-28T11:15:22;100915.08;;;6.10;80.93
66742;BME280;53654;54.152;19.432;2023-12-28T11:17:52;100915.31;;;6.16;80.89
66742;BME280;53654;54.152;19.432;2023-12-28T11:20:21;100911.77;;;6.23;80.90
66742;BME280;53654;54.152;19.432;2023-12-28T11:22:50;100916.69;;;6.30;80.88
66742;BME280;53654;54.152;19.432;2023-12-28T11:25:19;100909.67;;;6.37;80.70
66742;BME280;53654;54.152;19.432;2023-12-28T11:27:47;100914.76;;;6.42;80.53
66742;BME280;53654;54.152;19.432;2023-12-28T11:30:15;100915.16;;;6.47;80.44
66742;BME280;53654;54.152;19.432;2023-12-28T11:32:44;100905.66;;;6.51;80.49
66742;BME280;53654;54.152;19.432;2023-12-28T11:35:13;100905.20;;;6.56;80.53
66742;BME280;53654;54.152;19.432;2023-12-28T11:37:46;100904.39;;;6.60;80.57
66742;BME280;53654;54.152;19.432;2023-12-28T11:40:19;100898.19;;;6.65;80.47
66742;BME280;53654;54.152;19.432;2023-12-28T11:42:53;100897.68;;;6.67;80.30
66742;BME280;53654;54.152;19.432;2023-12-28T11:45:22;100902.89;;;6.67;80.34
66742;BME280;53654;54.152;19.432;2023-12-28T11:48:04;100889.55;;;6.68;80.47
66742;BME280;53654;54.152;19.432;2023-12-28T11:50:32;100890.77;;;6.68;80.51
66742;BME280;53654;54.152;19.432;2023-12-28T11:53:01;100893.92;;;6.71;80.65
66742;BME280;53654;54.152;19.432;2023-12-28T11:55:30;100898.29;;;6.76;80.74
66742;BME280;53654;54.152;19.432;2023-12-28T11:57:58;100897.47;;;6.81;80.76
66742;BME280;53654;54.152;19.432;2023-12-28T12:00:26;100888.98;;;6.84;80.84
66742;BME280;53654;54.152;19.432;2023-12-28T12:02:57;100891.45;;;6.87;80.94
66742;BME280;53654;54.152;19.432;2023-12-28T12:05:25;100886.42;;;6.88;80.93
66742;BME280;53654;54.152;19.432;2023-12-28T12:07:54;100876.57;;;6.90;80.99
66742;BME280;53654;54.152;19.432;2023-12-28T12:10:22;100864.44;;;6.93;81.00
66742;BME280;53654;54.152;19.432;2023-12-28T12:12:52;100860.15;;;6.97;81.00
66742;BME280;53654;54.152;19.432;2023-12-28T12:15:21;100863.46;;;7.00;80.82
66742;BME280;53654;54.152;19.432;2023-12-28T12:17:50;100860.89;;;7.04;80.84
66742;BME280;53654;54.152;19.432;2023-12-28T12:20:19;100856.77;;;7.07;80.73
66742;BME280;53654;54.152;19.432;2023-12-28T12:22:47;100864.92;;;7.09;80.67
66742;BME280;53654;54.152;19.432;2023-12-28T12:25:17;100870.84;;;7.12;80.62
66742;BME280;53654;54.152;19.432;2023-12-28T12:27:48;100882.67;;;7.16;80.72
66742;BME280;53654;54.152;19.432;2023-12-28T12:30:16;100879.41;;;7.21;80.58
66742;BME280;53654;54.152;19.432;2023-12-28T12:32:44;100879.77;;;7.24;80.46
66742;BME280;53654;54.152;19.432;2023-12-28T12:35:13;100872.34;;;7.26;80.30
66742;BME280;53654;54.152;19.432;2023-12-28T12:37:43;100862.80;;;7.28;80.22
66742;BME280;53654;54.152;19.432;2023-12-28T12:40:12;100858.13;;;7.29;80.18
66742;BME280;53654;54.152;19.432;2023-12-28T12:42:53;100856.94;;;7.33;80.05
66742;BME280;53654;54.152;19.432;2023-12-28T12:45:22;100858.17;;;7.35;79.95
66742;BME280;53654;54.152;19.432;2023-12-28T12:47:52;100865.98;;;7.36;79.82
66742;BME280;53654;54.152;19.432;2023-12-28T12:50:20;100868.08;;;7.37;79.67
66742;BME280;53654;54.152;19.432;2023-12-28T12:52:49;100867.55;;;7.36;79.69
66742;BME280;53654;54.152;19.432;2023-12-28T12:55:17;100870.87;;;7.40;79.91
66742;BME280;53654;54.152;19.432;2023-12-28T12:57:46;100871.08;;;7.46;79.94
66742;BME280;53654;54.152;19.432;2023-12-28T13:00:14;100867.64;;;7.52;79.81
66742;BME280;53654;54.152;19.432;2023-12-28T13:02:44;100865.41;;;7.56;79.64
66742;BME280;53654;54.152;19.432;2023-12-28T13:05:12;100868.55;;;7.60;79.50